createdAt,value
2022-09-24T04:58:27.007Z,12.15
2022-09-24T05:00:54.581Z,11.88
2022-09-24T05:03:21.386Z,12.23
2022-09-24T05:05:52.052Z,12.20
2022-09-24T05:08:19.068Z,12.43
2022-09-24T05:10:46.107Z,13.15
2022-09-24T05:28:52.130Z,13.85
2022-09-24T05:31:19.705Z,15.27
2022-09-24T05:33:46.554Z,15.98
2022-09-24T05:36:13.785Z,13.68
2022-09-24T05:38:43.312Z,13.30
2022-09-24T05:41:10.414Z,15.93
2022-09-24T05:43:38.054Z,16.15
2022-09-24T06:01:35.488Z,15.63
2022-09-24T06:04:07.877Z,15.52
2022-09-24T06:06:35.773Z,16.23
2022-09-24T06:09:03.151Z,16.52
2022-09-24T06:11:40.109Z,17.05
2022-09-24T06:14:10.718Z,16.10
2022-09-24T06:16:41.229Z,16.17
2022-09-24T06:39:51.859Z,13.10
2022-09-24T06:42:20.469Z,14.93
2022-09-24T06:44:48.054Z,16.17
2022-09-24T06:47:15.249Z,16.10
2022-09-24T06:49:42.136Z,15.80
2022-09-24T06:52:09.126Z,16.35
2022-09-24T07:10:06.923Z,18.38
2022-09-24T07:12:36.144Z,17.25
2022-09-24T07:15:03.520Z,16.73
2022-09-24T07:17:33.943Z,16.45
2022-09-24T07:20:01.447Z,16.35
2022-09-24T07:22:28.845Z,15.43
2022-09-24T07:24:55.703Z,15.00
2022-09-24T07:53:16.266Z,15.48
2022-09-24T07:55:43.717Z,15.70
2022-09-24T07:58:13.169Z,16.40
2022-09-24T08:00:40.847Z,15.35
2022-09-24T08:03:08.101Z,16.23
2022-09-24T08:05:35.137Z,15.95
2022-09-24T08:08:27.742Z,20.20
2022-09-24T08:16:20.336Z,16.02
2022-09-24T08:18:50.765Z,15.23
2022-09-24T08:21:20.881Z,16.33
2022-09-24T08:23:51.491Z,15.82
2022-09-24T08:26:18.249Z,15.57
2022-09-24T08:28:48.221Z,14.95
2022-09-24T08:31:15.714Z,16.30
2022-09-24T08:36:52.582Z,14.40
2022-09-24T08:39:25.461Z,14.82
2022-09-24T08:42:04.111Z,13.98
2022-09-24T08:48:31.531Z,14.38
2022-09-24T08:51:02.858Z,13.90
2022-09-24T08:56:44.678Z,13.60
2022-09-24T08:59:30.158Z,13.13
2022-09-24T09:02:24.383Z,12.85
2022-09-24T09:05:10.112Z,13.10
2022-09-24T09:08:00.160Z,14.15
2022-09-24T09:10:40.656Z,12.80
2022-09-24T09:27:51.289Z,13.02
2022-09-24T09:30:21.307Z,12.35
2022-09-24T09:35:19.597Z,12.20
2022-09-24T09:37:57.415Z,11.15
2022-09-24T09:40:32.103Z,13.63
2022-09-24T09:43:03.877Z,11.75
2022-09-24T11:08:45.671Z,10.90
2022-09-24T11:11:31.873Z,11.02
2022-09-24T11:14:15.937Z,11.50
2022-09-24T11:17:01.647Z,10.52
2022-09-24T11:19:56.752Z,11.68
2022-09-24T11:49:54.332Z,10.13
2022-09-24T11:52:31.231Z,10.15
2022-09-24T11:54:58.410Z,10.20
2022-09-24T11:57:29.820Z,10.88
2022-09-24T12:00:08.084Z,10.90
2022-09-24T12:02:45.557Z,10.18
2022-09-24T12:11:23.815Z,8.88
2022-09-24T12:14:17.239Z,10.88
2022-09-24T12:16:48.099Z,8.35
2022-09-24T12:19:31.335Z,9.35
2022-09-24T12:22:01.319Z,8.23
2022-09-24T12:24:33.766Z,7.55
2022-09-24T12:27:09.640Z,8.77
2022-09-24T12:36:00.916Z,8.35
2022-09-24T12:38:34.260Z,13.68
2022-09-24T12:41:56.194Z,12.30
2022-09-24T12:44:42.056Z,8.02
2022-09-24T12:47:24.095Z,7.93
2022-09-24T12:49:56.817Z,8.63
2022-09-24T12:57:41.969Z,8.35
2022-09-24T13:00:37.048Z,13.30
2022-09-24T13:03:06.142Z,16.38
2022-09-24T13:05:57.031Z,18.05
2022-09-24T13:08:25.636Z,17.60
2022-09-24T13:11:00.257Z,18.88
2022-09-24T13:13:30.180Z,16.63
2022-09-24T13:21:08.402Z,18.23
2022-09-24T13:23:38.186Z,17.48
2022-09-24T13:28:48.772Z,16.27
2022-09-24T13:32:08.612Z,16.65
2022-09-24T13:34:39.592Z,16.88
2022-09-24T13:42:02.863Z,9.90
2022-09-24T13:44:52.661Z,8.85
2022-09-24T13:47:57.431Z,7.13
2022-09-24T13:51:36.547Z,7.05
2022-09-24T13:54:36.821Z,6.90
2022-09-24T13:57:45.643Z,7.07
2022-09-24T14:00:16.536Z,7.95
2022-09-24T14:05:38.137Z,17.40
2022-09-24T14:08:47.539Z,17.73
2022-09-24T14:11:36.074Z,16.67
2022-09-24T14:14:14.946Z,18.75
2022-09-24T14:16:42.225Z,18.17
2022-09-24T14:19:14.489Z,16.88
2022-09-24T14:21:52.709Z,17.63
2022-09-24T15:27:23.635Z,6.32
2022-09-24T15:29:50.628Z,5.35
2022-09-24T15:32:19.394Z,5.20
2022-09-24T15:34:47.284Z,5.60
2022-09-24T15:37:18.871Z,5.65
2022-09-24T15:39:49.888Z,5.63
2022-09-24T23:23:46.146Z,13.95
2022-09-24T23:26:17.039Z,15.13
2022-09-24T23:28:52.237Z,13.40
2022-09-24T23:31:24.938Z,14.52
2022-09-24T23:33:53.729Z,14.18
2022-09-24T23:58:22.016Z,12.85
